aviador You're here:

DAUH Decoded Metar

HASSI-MESSAOUD in ALGERIA
Report Time2018-06-22 22:30:00
UTC Time2018-06-22 23:00:42
Flight Rules vfr VFR
Wind100° at 03 kt
W.Decomp.*RWY 18: 0.5 kt HW 3 kt LCW
W.Rank100° ranks 13
Current wind is below 100° avg. (8.9)
Visibility9999 m
Phenomena:N/A
Clouds:N/A
Expected CloudBase > 6,800 ft AGL from Temp-Dew spread
CeilingNone
Temp30°C (ISA +16)
Dew Point13°C (35% RH)
Heat Index29.2°C
AAT29.8°C
QNH1014 hPa
Density Alt2,461 ft
Elevation466 ft
Report Wrong Elevation
Raw Report
DAUH 222230Z 10003KT CAVOK 30/13 Q1014=

Extra information for DAUH:More info

Metar Taf Metar & Taf Last 4 Metars F.Rules Stats Wind Profile Meteogram Temp Stats Airport Information Weather charts Add Link Nearby VenuesMetar ALERT Operation Metar Decoded Social comments